sensor_id;sensor_type;location;lat;lon;timestamp;P1;durP1;ratioP1;P2;durP2;ratioP2
9821;SDS011;4950;46.042;14.472;2022-11-15T00:01:07;31.83;;;28.43;;
9821;SDS011;4950;46.042;14.472;2022-11-15T00:03:34;31.97;;;28.53;;
9821;SDS011;4950;46.042;14.472;2022-11-15T00:06:01;31.27;;;27.93;;
9821;SDS011;4950;46.042;14.472;2022-11-15T00:08:29;32.37;;;29.07;;
9821;SDS011;4950;46.042;14.472;2022-11-15T00:10:58;33.03;;;29.67;;
9821;SDS011;4950;46.042;14.472;2022-11-15T00:13:27;32.17;;;28.47;;
9821;SDS011;4950;46.042;14.472;2022-11-15T00:15:56;31.80;;;28.40;;
9821;SDS011;4950;46.042;14.472;2022-11-15T00:18:23;31.57;;;28.27;;
9821;SDS011;4950;46.042;14.472;2022-11-15T00:20:50;32.97;;;29.47;;
9821;SDS011;4950;46.042;14.472;2022-11-15T00:23:16;32.00;;;28.70;;
9821;SDS011;4950;46.042;14.472;2022-11-15T00:25:43;32.20;;;28.80;;
9821;SDS011;4950;46.042;14.472;2022-11-15T00:28:11;32.13;;;28.77;;
9821;SDS011;4950;46.042;14.472;2022-11-15T00:30:38;33.10;;;29.90;;
9821;SDS011;4950;46.042;14.472;2022-11-15T00:33:04;32.73;;;29.43;;
9821;SDS011;4950;46.042;14.472;2022-11-15T00:35:32;31.50;;;28.20;;
9821;SDS011;4950;46.042;14.472;2022-11-15T00:38:00;32.77;;;29.37;;
9821;SDS011;4950;46.042;14.472;2022-11-15T00:40:27;31.47;;;28.17;;
9821;SDS011;4950;46.042;14.472;2022-11-15T00:42:54;32.20;;;28.87;;
9821;SDS011;4950;46.042;14.472;2022-11-15T00:45:22;32.73;;;29.33;;
9821;SDS011;4950;46.042;14.472;2022-11-15T00:47:49;31.30;;;28.10;;
9821;SDS011;4950;46.042;14.472;2022-11-15T00:50:16;34.10;;;30.70;;
9821;SDS011;4950;46.042;14.472;2022-11-15T00:52:44;32.67;;;29.27;;
9821;SDS011;4950;46.042;14.472;2022-11-15T00:55:12;32.80;;;29.30;;
9821;SDS011;4950;46.042;14.472;2022-11-15T00:57:40;33.30;;;29.80;;
9821;SDS011;4950;46.042;14.472;2022-11-15T01:00:07;33.43;;;30.03;;
9821;SDS011;4950;46.042;14.472;2022-11-15T01:02:36;34.63;;;30.93;;
9821;SDS011;4950;46.042;14.472;2022-11-15T01:05:03;34.77;;;31.13;;
9821;SDS011;4950;46.042;14.472;2022-11-15T01:07:30;31.53;;;28.17;;
9821;SDS011;4950;46.042;14.472;2022-11-15T01:09:57;34.53;;;30.87;;
9821;SDS011;4950;46.042;14.472;2022-11-15T01:12:23;34.67;;;31.17;;
9821;SDS011;4950;46.042;14.472;2022-11-15T01:14:50;34.63;;;31.33;;
9821;SDS011;4950;46.042;14.472;2022-11-15T01:17:17;35.93;;;32.33;;
9821;SDS011;4950;46.042;14.472;2022-11-15T01:19:45;35.27;;;31.53;;
9821;SDS011;4950;46.042;14.472;2022-11-15T01:22:11;33.57;;;29.97;;
9821;SDS011;4950;46.042;14.472;2022-11-15T01:24:38;32.80;;;29.50;;
9821;SDS011;4950;46.042;14.472;2022-11-15T01:27:05;35.50;;;31.90;;
9821;SDS011;4950;46.042;14.472;2022-11-15T01:29:31;34.13;;;30.73;;
9821;SDS011;4950;46.042;14.472;2022-11-15T01:31:58;34.63;;;31.13;;
9821;SDS011;4950;46.042;14.472;2022-11-15T01:34:24;34.90;;;31.20;;
9821;SDS011;4950;46.042;14.472;2022-11-15T01:36:52;34.53;;;30.93;;
9821;SDS011;4950;46.042;14.472;2022-11-15T01:39:19;34.00;;;30.50;;
9821;SDS011;4950;46.042;14.472;2022-11-15T01:41:46;32.17;;;28.67;;
9821;SDS011;4950;46.042;14.472;2022-11-15T01:44:36;33.13;;;29.53;;
9821;SDS011;4950;46.042;14.472;2022-11-15T01:47:06;33.43;;;29.80;;
9821;SDS011;4950;46.042;14.472;2022-11-15T01:49:38;34.93;;;31.23;;
9821;SDS011;4950;46.042;14.472;2022-11-15T01:52:14;34.27;;;30.93;;
9821;SDS011;4950;46.042;14.472;2022-11-15T01:54:43;35.03;;;31.53;;
9821;SDS011;4950;46.042;14.472;2022-11-15T01:57:11;36.80;;;32.93;;
9821;SDS011;4950;46.042;14.472;2022-11-15T01:59:40;35.23;;;31.67;;
9821;SDS011;4950;46.042;14.472;2022-11-15T02:02:09;34.73;;;31.03;;
9821;SDS011;4950;46.042;14.472;2022-11-15T02:04:37;33.57;;;29.97;;
9821;SDS011;4950;46.042;14.472;2022-11-15T02:07:07;35.03;;;31.30;;
9821;SDS011;4950;46.042;14.472;2022-11-15T02:09:37;34.50;;;31.00;;
9821;SDS011;4950;46.042;14.472;2022-11-15T02:12:04;35.10;;;31.50;;
9821;SDS011;4950;46.042;14.472;2022-11-15T02:14:33;33.67;;;30.30;;
9821;SDS011;4950;46.042;14.472;2022-11-15T02:17:03;33.23;;;29.67;;
9821;SDS011;4950;46.042;14.472;2022-11-15T02:19:46;33.80;;;30.23;;
9821;SDS011;4950;46.042;14.472;2022-11-15T02:22:35;33.70;;;30.17;;
9821;SDS011;4950;46.042;14.472;2022-11-15T02:25:17;34.20;;;30.57;;
9821;SDS011;4950;46.042;14.472;2022-11-15T02:28:06;34.27;;;30.67;;
9821;SDS011;4950;46.042;14.472;2022-11-15T02:30:58;32.50;;;29.20;;
9821;SDS011;4950;46.042;14.472;2022-11-15T02:33:33;33.20;;;29.90;;
9821;SDS011;4950;46.042;14.472;2022-11-15T02:36:05;34.57;;;31.07;;
9821;SDS011;4950;46.042;14.472;2022-11-15T02:38:38;34.53;;;31.07;;
9821;SDS011;4950;46.042;14.472;2022-11-15T02:41:10;33.37;;;29.97;;
9821;SDS011;4950;46.042;14.472;2022-11-15T02:43:43;35.00;;;31.60;;
9821;SDS011;4950;46.042;14.472;2022-11-15T02:46:23;37.23;;;33.43;;
9821;SDS011;4950;46.042;14.472;2022-11-15T02:49:08;36.40;;;32.57;;
9821;SDS011;4950;46.042;14.472;2022-11-15T02:51:37;37.83;;;34.10;;
9821;SDS011;4950;46.042;14.472;2022-11-15T02:54:06;40.73;;;36.57;;
9821;SDS011;4950;46.042;14.472;2022-11-15T02:56:33;38.93;;;34.87;;
9821;SDS011;4950;46.042;14.472;2022-11-15T02:59:03;40.27;;;36.03;;
9821;SDS011;4950;46.042;14.472;2022-11-15T03:01:44;39.70;;;35.60;;
9821;SDS011;4950;46.042;14.472;2022-11-15T03:04:23;40.00;;;35.70;;
9821;SDS011;4950;46.042;14.472;2022-11-15T03:07:00;40.07;;;35.97;;
9821;SDS011;4950;46.042;14.472;2022-11-15T03:09:34;38.83;;;34.87;;
9821;SDS011;4950;46.042;14.472;2022-11-15T03:12:07;39.63;;;35.63;;
9821;SDS011;4950;46.042;14.472;2022-11-15T03:14:39;38.23;;;34.13;;
9821;SDS011;4950;46.042;14.472;2022-11-15T03:17:16;39.57;;;35.43;;
9821;SDS011;4950;46.042;14.472;2022-11-15T03:19:49;40.03;;;35.87;;
9821;SDS011;4950;46.042;14.472;2022-11-15T03:22:19;38.63;;;34.50;;
9821;SDS011;4950;46.042;14.472;2022-11-15T03:24:50;39.17;;;35.03;;
9821;SDS011;4950;46.042;14.472;2022-11-15T03:27:20;39.10;;;35.03;;
9821;SDS011;4950;46.042;14.472;2022-11-15T03:29:52;37.53;;;33.73;;
9821;SDS011;4950;46.042;14.472;2022-11-15T03:32:25;38.10;;;34.23;;
9821;SDS011;4950;46.042;14.472;2022-11-15T03:34:55;39.73;;;35.60;;
9821;SDS011;4950;46.042;14.472;2022-11-15T03:37:26;38.50;;;34.47;;
9821;SDS011;4950;46.042;14.472;2022-11-15T03:39:57;39.23;;;35.10;;
9821;SDS011;4950;46.042;14.472;2022-11-15T03:42:26;38.97;;;34.97;;
9821;SDS011;4950;46.042;14.472;2022-11-15T03:44:58;42.23;;;37.80;;
9821;SDS011;4950;46.042;14.472;2022-11-15T03:47:32;40.13;;;36.13;;
9821;SDS011;4950;46.042;14.472;2022-11-15T03:50:04;40.10;;;35.90;;
9821;SDS011;4950;46.042;14.472;2022-11-15T03:52:34;40.27;;;36.17;;
9821;SDS011;4950;46.042;14.472;2022-11-15T03:55:02;43.23;;;38.83;;
9821;SDS011;4950;46.042;14.472;2022-11-15T03:57:30;42.40;;;37.77;;
9821;SDS011;4950;46.042;14.472;2022-11-15T03:59:57;41.53;;;36.97;;
9821;SDS011;4950;46.042;14.472;2022-11-15T04:02:24;41.03;;;36.83;;
9821;SDS011;4950;46.042;14.472;2022-11-15T04:04:52;38.73;;;34.80;;
9821;SDS011;4950;46.042;14.472;2022-11-15T04:07:19;42.27;;;37.73;;
9821;SDS011;4950;46.042;14.472;2022-11-15T04:09:45;41.00;;;36.70;;
9821;SDS011;4950;46.042;14.472;2022-11-15T04:12:30;40.87;;;36.57;;
9821;SDS011;4950;46.042;14.472;2022-11-15T04:14:59;39.33;;;35.33;;
9821;SDS011;4950;46.042;14.472;2022-11-15T04:17:36;42.03;;;37.63;;
9821;SDS011;4950;46.042;14.472;2022-11-15T04:20:07;41.93;;;37.73;;
9821;SDS011;4950;46.042;14.472;2022-11-15T04:22:53;41.17;;;36.87;;
9821;SDS011;4950;46.042;14.472;2022-11-15T04:25:37;40.90;;;36.70;;
9821;SDS011;4950;46.042;14.472;2022-11-15T04:28:04;41.73;;;37.43;;
9821;SDS011;4950;46.042;14.472;2022-11-15T04:30:31;40.80;;;36.53;;
9821;SDS011;4950;46.042;14.472;2022-11-15T04:32:57;40.87;;;36.63;;
9821;SDS011;4950;46.042;14.472;2022-11-15T04:35:25;40.80;;;36.47;;
9821;SDS011;4950;46.042;14.472;2022-11-15T04:37:52;42.30;;;37.87;;
9821;SDS011;4950;46.042;14.472;2022-11-15T04:40:19;41.87;;;37.60;;
9821;SDS011;4950;46.042;14.472;2022-11-15T04:42:45;40.07;;;35.83;;
9821;SDS011;4950;46.042;14.472;2022-11-15T04:45:12;41.10;;;36.80;;
9821;SDS011;4950;46.042;14.472;2022-11-15T04:47:39;40.63;;;36.43;;
9821;SDS011;4950;46.042;14.472;2022-11-15T04:50:06;41.53;;;37.23;;
9821;SDS011;4950;46.042;14.472;2022-11-15T04:52:34;40.57;;;36.40;;
9821;SDS011;4950;46.042;14.472;2022-11-15T04:55:01;41.93;;;37.50;;
9821;SDS011;4950;46.042;14.472;2022-11-15T04:57:28;43.03;;;38.47;;
9821;SDS011;4950;46.042;14.472;2022-11-15T04:59:54;42.07;;;37.67;;
9821;SDS011;4950;46.042;14.472;2022-11-15T05:02:21;42.90;;;38.33;;
9821;SDS011;4950;46.042;14.472;2022-11-15T05:04:47;43.97;;;39.20;;
9821;SDS011;4950;46.042;14.472;2022-11-15T05:07:13;43.20;;;38.60;;
9821;SDS011;4950;46.042;14.472;2022-11-15T05:09:41;42.77;;;38.17;;
9821;SDS011;4950;46.042;14.472;2022-11-15T05:12:08;41.30;;;36.87;;
9821;SDS011;4950;46.042;14.472;2022-11-15T05:14:34;43.07;;;38.43;;
9821;SDS011;4950;46.042;14.472;2022-11-15T05:17:01;41.47;;;37.20;;
9821;SDS011;4950;46.042;14.472;2022-11-15T05:19:28;42.17;;;37.77;;
9821;SDS011;4950;46.042;14.472;2022-11-15T05:21:54;44.27;;;39.20;;
9821;SDS011;4950;46.042;14.472;2022-11-15T05:24:21;44.00;;;37.67;;
9821;SDS011;4950;46.042;14.472;2022-11-15T05:26:49;44.30;;;38.93;;
9821;SDS011;4950;46.042;14.472;2022-11-15T05:29:16;39.60;;;35.50;;
9821;SDS011;4950;46.042;14.472;2022-11-15T05:31:43;41.47;;;37.07;;
9821;SDS011;4950;46.042;14.472;2022-11-15T05:34:09;41.40;;;36.90;;
9821;SDS011;4950;46.042;14.472;2022-11-15T05:36:37;42.33;;;37.67;;
9821;SDS011;4950;46.042;14.472;2022-11-15T05:39:05;40.83;;;36.43;;
9821;SDS011;4950;46.042;14.472;2022-11-15T05:41:34;41.47;;;37.13;;
9821;SDS011;4950;46.042;14.472;2022-11-15T05:44:05;43.43;;;37.67;;
9821;SDS011;4950;46.042;14.472;2022-11-15T05:46:35;42.20;;;37.80;;
9821;SDS011;4950;46.042;14.472;2022-11-15T05:49:07;43.47;;;38.87;;
9821;SDS011;4950;46.042;14.472;2022-11-15T05:51:37;42.17;;;37.57;;
9821;SDS011;4950;46.042;14.472;2022-11-15T05:54:05;41.87;;;37.40;;
9821;SDS011;4950;46.042;14.472;2022-11-15T05:56:31;44.60;;;39.90;;
9821;SDS011;4950;46.042;14.472;2022-11-15T05:58:58;43.33;;;38.63;;
9821;SDS011;4950;46.042;14.472;2022-11-15T06:01:26;43.60;;;38.80;;
9821;SDS011;4950;46.042;14.472;2022-11-15T06:03:54;50.77;;;40.33;;
9821;SDS011;4950;46.042;14.472;2022-11-15T06:06:20;47.77;;;38.47;;
9821;SDS011;4950;46.042;14.472;2022-11-15T06:08:47;43.63;;;38.93;;
9821;SDS011;4950;46.042;14.472;2022-11-15T06:11:14;43.47;;;36.90;;
9821;SDS011;4950;46.042;14.472;2022-11-15T06:13:40;52.00;;;41.03;;
9821;SDS011;4950;46.042;14.472;2022-11-15T06:16:07;46.73;;;39.73;;
9821;SDS011;4950;46.042;14.472;2022-11-15T06:18:35;46.87;;;38.87;;
9821;SDS011;4950;46.042;14.472;2022-11-15T06:21:03;49.27;;;40.43;;
9821;SDS011;4950;46.042;14.472;2022-11-15T06:23:31;46.63;;;38.37;;
9821;SDS011;4950;46.042;14.472;2022-11-15T06:25:59;45.00;;;37.93;;
9821;SDS011;4950;46.042;14.472;2022-11-15T06:28:27;46.77;;;38.97;;
9821;SDS011;4950;46.042;14.472;2022-11-15T06:30:54;44.93;;;37.23;;
9821;SDS011;4950;46.042;14.472;2022-11-15T06:33:21;47.20;;;38.50;;
9821;SDS011;4950;46.042;14.472;2022-11-15T06:35:49;45.17;;;38.03;;
9821;SDS011;4950;46.042;14.472;2022-11-15T06:38:16;45.17;;;38.17;;
9821;SDS011;4950;46.042;14.472;2022-11-15T06:40:43;45.17;;;38.87;;
9821;SDS011;4950;46.042;14.472;2022-11-15T06:43:09;41.47;;;36.83;;
9821;SDS011;4950;46.042;14.472;2022-11-15T06:45:36;44.97;;;38.40;;
9821;SDS011;4950;46.042;14.472;2022-11-15T06:48:03;44.33;;;38.33;;
9821;SDS011;4950;46.042;14.472;2022-11-15T06:50:30;46.77;;;38.37;;
9821;SDS011;4950;46.042;14.472;2022-11-15T06:53:01;46.40;;;38.43;;
9821;SDS011;4950;46.042;14.472;2022-11-15T06:55:29;44.63;;;37.17;;
9821;SDS011;4950;46.042;14.472;2022-11-15T06:57:55;45.27;;;37.83;;
9821;SDS011;4950;46.042;14.472;2022-11-15T07:00:22;48.20;;;38.23;;
9821;SDS011;4950;46.042;14.472;2022-11-15T07:02:49;48.70;;;38.50;;
9821;SDS011;4950;46.042;14.472;2022-11-15T07:05:15;49.03;;;39.27;;
9821;SDS011;4950;46.042;14.472;2022-11-15T07:07:42;48.47;;;39.17;;
9821;SDS011;4950;46.042;14.472;2022-11-15T07:10:11;49.53;;;39.03;;
9821;SDS011;4950;46.042;14.472;2022-11-15T07:12:37;52.53;;;40.73;;
9821;SDS011;4950;46.042;14.472;2022-11-15T07:15:04;50.97;;;40.60;;
9821;SDS011;4950;46.042;14.472;2022-11-15T07:17:32;51.03;;;40.77;;
9821;SDS011;4950;46.042;14.472;2022-11-15T07:19:58;49.20;;;39.03;;
9821;SDS011;4950;46.042;14.472;2022-11-15T07:22:25;49.27;;;39.63;;
9821;SDS011;4950;46.042;14.472;2022-11-15T07:24:52;53.03;;;41.57;;
9821;SDS011;4950;46.042;14.472;2022-11-15T07:27:20;46.40;;;38.87;;
9821;SDS011;4950;46.042;14.472;2022-11-15T07:29:47;47.97;;;38.90;;
9821;SDS011;4950;46.042;14.472;2022-11-15T07:32:13;49.37;;;38.47;;
9821;SDS011;4950;46.042;14.472;2022-11-15T07:34:40;44.97;;;37.23;;
9821;SDS011;4950;46.042;14.472;2022-11-15T07:37:07;48.87;;;39.97;;
9821;SDS011;4950;46.042;14.472;2022-11-15T07:39:33;54.07;;;40.43;;
9821;SDS011;4950;46.042;14.472;2022-11-15T07:42:00;50.47;;;39.90;;
9821;SDS011;4950;46.042;14.472;2022-11-15T07:44:42;48.27;;;39.03;;
9821;SDS011;4950;46.042;14.472;2022-11-15T07:47:09;50.57;;;39.60;;
9821;SDS011;4950;46.042;14.472;2022-11-15T07:49:35;48.20;;;37.67;;
9821;SDS011;4950;46.042;14.472;2022-11-15T07:52:02;52.20;;;39.53;;
9821;SDS011;4950;46.042;14.472;2022-11-15T07:54:29;50.60;;;39.90;;
9821;SDS011;4950;46.042;14.472;2022-11-15T07:56:55;49.83;;;38.47;;
9821;SDS011;4950;46.042;14.472;2022-11-15T07:59:22;48.27;;;37.00;;
9821;SDS011;4950;46.042;14.472;2022-11-15T08:01:50;42.80;;;34.83;;
9821;SDS011;4950;46.042;14.472;2022-11-15T08:04:17;41.23;;;33.27;;
9821;SDS011;4950;46.042;14.472;2022-11-15T08:06:43;42.80;;;32.80;;
9821;SDS011;4950;46.042;14.472;2022-11-15T08:09:11;40.77;;;32.73;;
9821;SDS011;4950;46.042;14.472;2022-11-15T08:11:37;43.73;;;34.77;;
9821;SDS011;4950;46.042;14.472;2022-11-15T08:14:04;41.57;;;32.20;;
9821;SDS011;4950;46.042;14.472;2022-11-15T08:16:31;38.27;;;32.00;;
9821;SDS011;4950;46.042;14.472;2022-11-15T08:18:59;39.67;;;32.47;;
9821;SDS011;4950;46.042;14.472;2022-11-15T08:21:26;42.63;;;32.00;;
9821;SDS011;4950;46.042;14.472;2022-11-15T08:23:52;36.37;;;30.90;;
9821;SDS011;4950;46.042;14.472;2022-11-15T08:26:19;36.33;;;30.60;;
9821;SDS011;4950;46.042;14.472;2022-11-15T08:28:46;38.37;;;31.40;;
9821;SDS011;4950;46.042;14.472;2022-11-15T08:31:13;41.40;;;31.67;;
9821;SDS011;4950;46.042;14.472;2022-11-15T08:33:41;39.80;;;30.47;;
9821;SDS011;4950;46.042;14.472;2022-11-15T08:36:11;37.90;;;30.20;;
9821;SDS011;4950;46.042;14.472;2022-11-15T08:38:39;36.27;;;30.47;;
9821;SDS011;4950;46.042;14.472;2022-11-15T08:41:06;33.13;;;29.10;;
9821;SDS011;4950;46.042;14.472;2022-11-15T08:43:37;34.47;;;30.13;;
9821;SDS011;4950;46.042;14.472;2022-11-15T08:46:04;35.60;;;29.93;;
9821;SDS011;4950;46.042;14.472;2022-11-15T08:48:30;33.27;;;28.93;;
9821;SDS011;4950;46.042;14.472;2022-11-15T08:50:57;37.37;;;31.37;;
9821;SDS011;4950;46.042;14.472;2022-11-15T08:53:25;33.23;;;28.80;;
9821;SDS011;4950;46.042;14.472;2022-11-15T08:55:52;33.27;;;29.63;;
9821;SDS011;4950;46.042;14.472;2022-11-15T08:58:18;34.17;;;28.53;;
9821;SDS011;4950;46.042;14.472;2022-11-15T09:00:45;37.13;;;29.13;;
9821;SDS011;4950;46.042;14.472;2022-11-15T09:03:12;33.17;;;29.40;;
9821;SDS011;4950;46.042;14.472;2022-11-15T09:05:38;36.43;;;29.20;;
9821;SDS011;4950;46.042;14.472;2022-11-15T09:08:05;34.10;;;29.73;;
9821;SDS011;4950;46.042;14.472;2022-11-15T09:10:33;33.37;;;28.17;;
9821;SDS011;4950;46.042;14.472;2022-11-15T09:13:00;33.87;;;28.70;;
9821;SDS011;4950;46.042;14.472;2022-11-15T09:15:26;33.53;;;27.73;;
9821;SDS011;4950;46.042;14.472;2022-11-15T09:17:53;34.00;;;27.97;;
9821;SDS011;4950;46.042;14.472;2022-11-15T09:20:19;31.23;;;27.83;;
9821;SDS011;4950;46.042;14.472;2022-11-15T09:22:46;35.07;;;29.37;;
9821;SDS011;4950;46.042;14.472;2022-11-15T09:25:13;32.67;;;27.07;;
9821;SDS011;4950;46.042;14.472;2022-11-15T09:27:41;31.73;;;26.40;;
9821;SDS011;4950;46.042;14.472;2022-11-15T09:30:07;31.03;;;26.27;;
9821;SDS011;4950;46.042;14.472;2022-11-15T09:32:35;29.27;;;26.00;;
9821;SDS011;4950;46.042;14.472;2022-11-15T09:35:01;27.77;;;23.77;;
9821;SDS011;4950;46.042;14.472;2022-11-15T09:37:28;28.03;;;23.73;;
9821;SDS011;4950;46.042;14.472;2022-11-15T09:39:57;27.97;;;21.50;;
9821;SDS011;4950;46.042;14.472;2022-11-15T09:42:26;28.93;;;22.23;;
9821;SDS011;4950;46.042;14.472;2022-11-15T09:45:09;22.70;;;19.77;;
9821;SDS011;4950;46.042;14.472;2022-11-15T09:47:49;26.23;;;20.53;;
9821;SDS011;4950;46.042;14.472;2022-11-15T09:50:31;20.67;;;18.30;;
9821;SDS011;4950;46.042;14.472;2022-11-15T09:53:04;23.73;;;19.07;;
9821;SDS011;4950;46.042;14.472;2022-11-15T09:55:37;20.53;;;17.83;;
9821;SDS011;4950;46.042;14.472;2022-11-15T09:58:15;24.53;;;19.63;;
9821;SDS011;4950;46.042;14.472;2022-11-15T10:00:50;22.47;;;18.27;;
9821;SDS011;4950;46.042;14.472;2022-11-15T10:03:19;20.87;;;17.27;;
9821;SDS011;4950;46.042;14.472;2022-11-15T10:05:54;17.30;;;15.50;;
9821;SDS011;4950;46.042;14.472;2022-11-15T10:08:25;14.93;;;13.40;;
9821;SDS011;4950;46.042;14.472;2022-11-15T10:11:01;14.83;;;13.07;;
9821;SDS011;4950;46.042;14.472;2022-11-15T10:13:30;17.53;;;12.80;;
9821;SDS011;4950;46.042;14.472;2022-11-15T10:16:03;13.77;;;12.37;;
9821;SDS011;4950;46.042;14.472;2022-11-15T10:18:41;13.53;;;12.23;;
9821;SDS011;4950;46.042;14.472;2022-11-15T10:21:19;14.53;;;12.33;;
9821;SDS011;4950;46.042;14.472;2022-11-15T10:23:58;15.23;;;13.30;;
9821;SDS011;4950;46.042;14.472;2022-11-15T10:26:25;16.93;;;13.13;;
9821;SDS011;4950;46.042;14.472;2022-11-15T10:28:53;14.17;;;12.30;;
9821;SDS011;4950;46.042;14.472;2022-11-15T10:31:25;14.67;;;12.27;;
9821;SDS011;4950;46.042;14.472;2022-11-15T10:33:56;13.30;;;11.57;;
9821;SDS011;4950;46.042;14.472;2022-11-15T10:36:36;12.17;;;10.90;;
9821;SDS011;4950;46.042;14.472;2022-11-15T10:39:03;14.77;;;12.30;;
9821;SDS011;4950;46.042;14.472;2022-11-15T10:41:31;13.17;;;11.80;;
9821;SDS011;4950;46.042;14.472;2022-11-15T10:44:02;14.23;;;11.80;;
9821;SDS011;4950;46.042;14.472;2022-11-15T10:46:46;12.57;;;11.27;;
9821;SDS011;4950;46.042;14.472;2022-11-15T10:49:16;13.30;;;11.73;;
9821;SDS011;4950;46.042;14.472;2022-11-15T10:51:45;12.50;;;11.30;;
9821;SDS011;4950;46.042;14.472;2022-11-15T10:54:14;15.27;;;11.50;;
9821;SDS011;4950;46.042;14.472;2022-11-15T10:56:59;11.43;;;10.33;;
9821;SDS011;4950;46.042;14.472;2022-11-15T10:59:32;13.47;;;9.27;;
9821;SDS011;4950;46.042;14.472;2022-11-15T11:02:20;10.47;;;9.37;;
9821;SDS011;4950;46.042;14.472;2022-11-15T11:04:54;12.60;;;9.00;;
9821;SDS011;4950;46.042;14.472;2022-11-15T11:07:22;8.63;;;7.83;;
9821;SDS011;4950;46.042;14.472;2022-11-15T11:09:56;9.80;;;7.80;;
9821;SDS011;4950;46.042;14.472;2022-11-15T11:12:27;12.83;;;7.53;;
9821;SDS011;4950;46.042;14.472;2022-11-15T11:14:55;7.77;;;7.00;;
9821;SDS011;4950;46.042;14.472;2022-11-15T11:17:26;7.77;;;6.97;;
9821;SDS011;4950;46.042;14.472;2022-11-15T11:20:00;7.27;;;6.67;;
9821;SDS011;4950;46.042;14.472;2022-11-15T11:22:32;7.67;;;6.90;;
9821;SDS011;4950;46.042;14.472;2022-11-15T11:25:10;7.60;;;6.90;;
9821;SDS011;4950;46.042;14.472;2022-11-15T11:27:49;9.63;;;7.47;;
9821;SDS011;4950;46.042;14.472;2022-11-15T11:30:29;7.57;;;6.87;;
9821;SDS011;4950;46.042;14.472;2022-11-15T11:33:07;9.93;;;7.47;;
9821;SDS011;4950;46.042;14.472;2022-11-15T11:35:43;7.33;;;6.63;;
9821;SDS011;4950;46.042;14.472;2022-11-15T11:38:24;7.73;;;7.00;;
9821;SDS011;4950;46.042;14.472;2022-11-15T11:41:04;7.00;;;6.30;;
9821;SDS011;4950;46.042;14.472;2022-11-15T11:43:40;6.73;;;6.03;;
9821;SDS011;4950;46.042;14.472;2022-11-15T11:49:17;7.63;;;6.70;;
9821;SDS011;4950;46.042;14.472;2022-11-15T11:51:49;6.97;;;6.37;;
9821;SDS011;4950;46.042;14.472;2022-11-15T11:54:20;8.90;;;6.20;;
9821;SDS011;4950;46.042;14.472;2022-11-15T11:56:53;6.80;;;6.10;;
9821;SDS011;4950;46.042;14.472;2022-11-15T11:59:25;6.27;;;5.60;;
9821;SDS011;4950;46.042;14.472;2022-11-15T12:01:58;6.77;;;6.07;;
9821;SDS011;4950;46.042;14.472;2022-11-15T12:04:30;6.50;;;5.30;;
9821;SDS011;4950;46.042;14.472;2022-11-15T12:07:08;6.97;;;5.47;;
9821;SDS011;4950;46.042;14.472;2022-11-15T12:09:41;7.10;;;5.27;;
9821;SDS011;4950;46.042;14.472;2022-11-15T12:12:11;5.97;;;5.37;;
9821;SDS011;4950;46.042;14.472;2022-11-15T12:14:45;5.43;;;4.93;;
9821;SDS011;4950;46.042;14.472;2022-11-15T12:17:16;7.80;;;5.40;;
9821;SDS011;4950;46.042;14.472;2022-11-15T12:19:48;5.27;;;4.83;;
9821;SDS011;4950;46.042;14.472;2022-11-15T12:22:17;6.30;;;5.20;;
9821;SDS011;4950;46.042;14.472;2022-11-15T12:24:48;5.97;;;4.97;;
9821;SDS011;4950;46.042;14.472;2022-11-15T12:27:24;8.47;;;5.00;;
9821;SDS011;4950;46.042;14.472;2022-11-15T12:29:58;8.37;;;4.40;;
9821;SDS011;4950;46.042;14.472;2022-11-15T12:32:28;5.03;;;4.53;;
9821;SDS011;4950;46.042;14.472;2022-11-15T12:34:59;6.37;;;5.00;;
9821;SDS011;4950;46.042;14.472;2022-11-15T12:37:46;5.03;;;4.53;;
9821;SDS011;4950;46.042;14.472;2022-11-15T12:40:22;4.70;;;4.30;;
9821;SDS011;4950;46.042;14.472;2022-11-15T12:43:00;7.03;;;4.77;;
9821;SDS011;4950;46.042;14.472;2022-11-15T12:45:30;5.47;;;4.20;;
9821;SDS011;4950;46.042;14.472;2022-11-15T12:51:04;4.13;;;3.73;;
9821;SDS011;4950;46.042;14.472;2022-11-15T12:53:31;3.90;;;3.60;;
9821;SDS011;4950;46.042;14.472;2022-11-15T12:56:09;6.17;;;4.00;;
9821;SDS011;4950;46.042;14.472;2022-11-15T12:58:51;3.67;;;3.30;;
9821;SDS011;4950;46.042;14.472;2022-11-15T13:04:27;4.47;;;3.90;;
9821;SDS011;4950;46.042;14.472;2022-11-15T13:06:59;4.20;;;3.90;;
9821;SDS011;4950;46.042;14.472;2022-11-15T13:18:26;5.17;;;4.00;;
9821;SDS011;4950;46.042;14.472;2022-11-15T13:20:56;4.10;;;3.80;;
9821;SDS011;4950;46.042;14.472;2022-11-15T13:23:25;4.83;;;3.83;;
9821;SDS011;4950;46.042;14.472;2022-11-15T13:28:42;4.23;;;3.83;;
9821;SDS011;4950;46.042;14.472;2022-11-15T13:31:19;4.13;;;3.73;;
9821;SDS011;4950;46.042;14.472;2022-11-15T13:33:49;7.40;;;4.03;;
9821;SDS011;4950;46.042;14.472;2022-11-15T13:36:18;4.00;;;3.60;;
9821;SDS011;4950;46.042;14.472;2022-11-15T13:38:55;4.63;;;3.93;;
9821;SDS011;4950;46.042;14.472;2022-11-15T13:41:24;8.23;;;3.83;;
9821;SDS011;4950;46.042;14.472;2022-11-15T13:43:53;4.07;;;3.63;;
9821;SDS011;4950;46.042;14.472;2022-11-15T13:46:22;5.43;;;3.87;;
9821;SDS011;4950;46.042;14.472;2022-11-15T13:48:54;5.43;;;3.97;;
9821;SDS011;4950;46.042;14.472;2022-11-15T13:51:24;4.23;;;3.83;;
9821;SDS011;4950;46.042;14.472;2022-11-15T13:53:58;4.60;;;3.73;;
9821;SDS011;4950;46.042;14.472;2022-11-15T13:56:30;3.93;;;3.63;;
9821;SDS011;4950;46.042;14.472;2022-11-15T13:58:59;5.60;;;3.50;;
9821;SDS011;4950;46.042;14.472;2022-11-15T14:01:26;4.20;;;3.80;;
9821;SDS011;4950;46.042;14.472;2022-11-15T14:03:58;5.20;;;3.70;;
9821;SDS011;4950;46.042;14.472;2022-11-15T14:06:26;6.03;;;3.60;;
9821;SDS011;4950;46.042;14.472;2022-11-15T14:12:02;4.33;;;3.90;;
9821;SDS011;4950;46.042;14.472;2022-11-15T14:14:48;4.67;;;3.97;;
9821;SDS011;4950;46.042;14.472;2022-11-15T14:17:18;5.07;;;4.53;;
9821;SDS011;4950;46.042;14.472;2022-11-15T14:19:48;5.70;;;4.63;;
9821;SDS011;4950;46.042;14.472;2022-11-15T14:22:17;5.33;;;4.40;;
9821;SDS011;4950;46.042;14.472;2022-11-15T14:25:05;4.97;;;4.43;;
9821;SDS011;4950;46.042;14.472;2022-11-15T14:27:40;6.17;;;4.77;;
9821;SDS011;4950;46.042;14.472;2022-11-15T14:30:12;5.53;;;4.87;;
9821;SDS011;4950;46.042;14.472;2022-11-15T14:32:43;6.63;;;5.03;;
9821;SDS011;4950;46.042;14.472;2022-11-15T14:35:12;7.73;;;5.00;;
9821;SDS011;4950;46.042;14.472;2022-11-15T14:37:41;6.97;;;5.23;;
9821;SDS011;4950;46.042;14.472;2022-11-15T14:40:12;5.47;;;4.97;;
9821;SDS011;4950;46.042;14.472;2022-11-15T14:42:40;7.10;;;5.73;;
9821;SDS011;4950;46.042;14.472;2022-11-15T14:45:09;6.20;;;5.60;;
9821;SDS011;4950;46.042;14.472;2022-11-15T14:47:39;6.47;;;5.50;;
9821;SDS011;4950;46.042;14.472;2022-11-15T14:50:10;6.93;;;5.90;;
9821;SDS011;4950;46.042;14.472;2022-11-15T14:52:38;7.27;;;6.03;;
9821;SDS011;4950;46.042;14.472;2022-11-15T14:55:11;6.63;;;6.03;;
9821;SDS011;4950;46.042;14.472;2022-11-15T14:57:43;6.70;;;6.00;;
9821;SDS011;4950;46.042;14.472;2022-11-15T15:00:11;8.27;;;6.13;;
9821;SDS011;4950;46.042;14.472;2022-11-15T15:02:39;6.57;;;5.97;;
9821;SDS011;4950;46.042;14.472;2022-11-15T15:05:14;7.27;;;6.30;;
9821;SDS011;4950;46.042;14.472;2022-11-15T15:07:43;6.23;;;5.63;;
9821;SDS011;4950;46.042;14.472;2022-11-15T15:10:11;7.93;;;6.23;;
9821;SDS011;4950;46.042;14.472;2022-11-15T15:12:39;7.70;;;6.40;;
9821;SDS011;4950;46.042;14.472;2022-11-15T15:15:09;6.67;;;5.87;;
9821;SDS011;4950;46.042;14.472;2022-11-15T15:17:40;8.47;;;6.53;;
9821;SDS011;4950;46.042;14.472;2022-11-15T15:20:07;8.53;;;7.50;;
9821;SDS011;4950;46.042;14.472;2022-11-15T15:22:34;8.80;;;7.80;;